Aviation Digital Data Service (ADDS)

Output produced by METARs form (0912 UTC 24 November 2014)
found at http://aviationweather.gov/adds/metars/
 
KINT 240841Z 2409/2506 20010G18KT P6SM SCT006 OVC025 
     TEMPO 2410/2412 OVC006 
     FM241500 21015G28KT P6SM OVC012 
     FM241800 22020G30KT P6SM SCT025 
     FM242200 21010KT P6SM SCT250